Time;durP1;ratioP1;P1;durP2;ratioP2;P2;SDS_P1;SDS_P2;PMS_P1;PMS_P2;Temp;Humidity;BMP_temperature;BMP_pressure;BME280_temperature;BME280_humidity;BME280_pressure;Samples;Min_cycle;Max_cycle;Signal;HPM_P1;HPM_P2
2021/06/26 00:01:39;;;;;;;;;;;;;;;10.63;100.00;100467.44;5110394;27;20363;-78
2021/06/26 00:04:55;;;;;;;;;;;;;;;10.64;100.00;100479.44;5121352;27;19923;-78
2021/06/26 00:07:28;;;;;;;;;;;;;;;10.61;100.00;100474.63;5106852;28;20446;-79
2021/06/26 00:10:08;;;;;;;;;;;;;;;10.62;100.00;100476.22;5103101;27;20018;-78
2021/06/26 00:12:41;;;;;;;;;;;;;;;10.65;100.00;100479.03;5116124;27;20632;-78
2021/06/26 00:15:49;;;;;;;;;;;;;;;10.69;100.00;100481.84;5117226;27;19928;-78
2021/06/26 00:18:18;;;;;;;;;;;;;;;10.67;100.00;100484.22;5114492;27;19946;-78
2021/06/26 00:21:03;;;;;;;;;;;;;;;10.76;100.00;100487.47;5101327;27;20414;-78
2021/06/26 00:23:53;;;;;;;;;;;;;;;;;;;;;
2021/06/26 00:26:37;;;;;;;;;;;;;;;10.81;100.00;100490.69;5105623;27;19931;-78
2021/06/26 00:29:21;;;;;;;;;;;;;;;10.80;100.00;100488.28;5095534;27;20280;-78
2021/06/26 00:31:48;;;;;;;;;;;;;;;10.74;100.00;100484.25;5130126;27;19965;-78
2021/06/26 00:34:15;;;;;;;;;;;;;;;10.69;100.00;100487.44;5105011;28;19928;-78
2021/06/26 00:36:50;;;;;;;;;;;;;;;10.70;100.00;100498.25;5122933;27;19939;-78
2021/06/26 00:40:12;;;;;;;;;;;;;;;10.74;100.00;100501.03;5086631;27;19962;-78
2021/06/26 00:43:44;;;;;;;;;;;;;;;10.67;100.00;100507.41;5112135;28;19931;-78
2021/06/26 00:46:16;;;;;;;;;;;;;;;10.72;100.00;100504.22;5111418;27;19927;-78
2021/06/26 00:49:05;;;;;;;;;;;;;;;10.64;100.00;100510.16;5089102;27;19923;-77
2021/06/26 00:51:41;;;;;;;;;;;;;;;10.71;100.00;100513.00;5120567;27;19927;-78
2021/06/26 00:54:08;;;;;;;;;;;;;;;10.64;100.00;100512.97;5130981;27;19931;-78
2021/06/26 00:56:36;;;;;;;;;;;;;;;10.61;100.00;100510.94;5129634;27;20251;-78
2021/06/26 00:59:11;;;;;;;;;;;;;;;10.60;100.00;100512.16;5135271;27;20366;-78
2021/06/26 01:01:38;;;;;;;;;;;;;;;10.58;100.00;100517.31;5125133;27;19931;-78
2021/06/26 01:04:05;;;;;;;;;;;;;;;10.64;100.00;100521.34;5133038;27;20324;-78
2021/06/26 01:06:32;;;;;;;;;;;;;;;10.66;100.00;100521.78;5126705;27;19924;-78
2021/06/26 01:09:00;;;;;;;;;;;;;;;10.60;100.00;100528.94;5132263;27;19930;-78
2021/06/26 01:11:27;;;;;;;;;;;;;;;10.64;100.00;100529.75;5132917;27;19953;-78
2021/06/26 01:13:56;;;;;;;;;;;;;;;10.63;100.00;100522.56;5116335;27;19963;-78
2021/06/26 01:16:24;;;;;;;;;;;;;;;10.62;100.00;100540.50;5127835;27;20163;-78
2021/06/26 01:18:51;;;;;;;;;;;;;;;10.65;100.00;100550.91;5124689;27;19930;-78
2021/06/26 01:21:19;;;;;;;;;;;;;;;10.62;100.00;100543.28;5125479;27;19924;-78
2021/06/26 01:23:53;;;;;;;;;;;;;;;10.68;100.00;100555.72;5132489;27;19930;-78
2021/06/26 01:32:07;;;;;;;;;;;;;;;10.64;100.00;100560.50;5035050;28;19948;-78
2021/06/26 01:34:58;;;;;;;;;;;;;;;10.65;100.00;100570.47;5005999;28;20500;-78
2021/06/26 01:37:29;;;;;;;;;;;;;;;10.64;100.00;100572.50;5007038;28;19929;-78
2021/06/26 01:39:57;;;;;;;;;;;;;;;10.62;100.00;100571.25;5025067;28;19982;-78
2021/06/26 01:42:31;;;;;;;;;;;;;;;10.64;100.00;100571.66;5022703;28;20432;-78
2021/06/26 01:44:58;;;;;;;;;;;;;;;10.67;100.00;100577.31;5039659;28;20403;-78
2021/06/26 01:47:26;;;;;;;;;;;;;;;10.70;100.00;100581.31;5037828;28;19925;-78
2021/06/26 01:49:53;;;;;;;;;;;;;;;10.80;100.00;100591.75;5051878;28;19962;-78
2021/06/26 01:52:30;;;;;;;;;;;;;;;10.84;100.00;100592.59;4989636;28;19929;-78
2021/06/26 01:55:06;;;;;;;;;;;;;;;10.77;100.00;100590.53;5026204;28;20388;-78
2021/06/26 01:57:46;;;;;;;;;;;;;;;10.75;100.00;100586.53;5032482;28;20403;-78
2021/06/26 02:00:14;;;;;;;;;;;;;;;10.70;100.00;100592.47;5016398;28;19960;-78
2021/06/26 02:02:42;;;;;;;;;;;;;;;10.59;100.00;100592.41;5037418;28;19925;-78
2021/06/26 02:05:11;;;;;;;;;;;;;;;10.56;100.00;100597.94;5026159;28;20687;-79
2021/06/26 02:07:44;;;;;;;;;;;;;;;10.59;100.00;100605.56;5072588;28;19932;-78
2021/06/26 02:10:13;;;;;;;;;;;;;;;10.47;100.00;100605.88;5112090;28;20327;-78
2021/06/26 02:12:40;;;;;;;;;;;;;;;10.50;100.00;100607.88;5108096;28;20329;-78
2021/06/26 02:15:08;;;;;;;;;;;;;;;10.50;100.00;100614.28;5113533;28;19924;-78
2021/06/26 02:17:35;;;;;;;;;;;;;;;10.57;100.00;100619.16;5114954;28;19924;-78
2021/06/26 02:20:05;;;;;;;;;;;;;;;10.57;100.00;100627.53;5107969;28;19963;-78
2021/06/26 02:22:33;;;;;;;;;;;;;;;10.58;100.00;100629.13;5103252;28;19924;-78
2021/06/26 02:25:04;;;;;;;;;;;;;;;10.56;100.00;100628.69;5114900;28;19946;-78
2021/06/26 02:27:33;;;;;;;;;;;;;;;10.49;100.00;100631.44;5113163;28;20416;-78
2021/06/26 02:30:00;;;;;;;;;;;;;;;10.49;100.00;100637.03;5107726;28;19931;-78
2021/06/26 02:32:28;;;;;;;;;;;;;;;10.48;100.00;100644.59;5110895;28;19924;-78
2021/06/26 02:34:55;;;;;;;;;;;;;;;10.45;100.00;100644.59;5089772;28;19924;-78
2021/06/26 02:37:23;;;;;;;;;;;;;;;10.48;100.00;100643.81;5107822;28;19923;-78
2021/06/26 02:39:50;;;;;;;;;;;;;;;10.47;100.00;100653.38;5105066;28;20033;-78
2021/06/26 02:42:17;;;;;;;;;;;;;;;10.51;100.00;100657.03;5109305;28;20026;-78
2021/06/26 02:44:44;;;;;;;;;;;;;;;10.51;100.00;100654.22;5113244;28;19928;-78
2021/06/26 02:47:12;;;;;;;;;;;;;;;10.58;100.00;100657.88;5114669;28;20383;-78
2021/06/26 02:49:39;;;;;;;;;;;;;;;10.59;100.00;100662.28;5104493;28;19923;-78
2021/06/26 02:52:07;;;;;;;;;;;;;;;10.62;100.00;100842.41;5096582;28;19930;-78
2021/06/26 02:54:34;;;;;;;;;;;;;;;10.66;100.00;100863.63;5103909;28;19928;-78
2021/06/26 02:57:02;;;;;;;;;;;;;;;10.48;100.00;100862.59;5112233;28;19935;-78
2021/06/26 02:59:29;;;;;;;;;;;;;;;10.35;100.00;100961.03;5103799;28;19924;-78
2021/06/26 03:01:56;;;;;;;;;;;;;;;10.34;100.00;101074.00;5109392;28;19930;-78
2021/06/26 03:04:24;;;;;;;;;;;;;;;10.26;100.00;101061.06;5114453;28;19924;-78
2021/06/26 03:06:52;;;;;;;;;;;;;;;10.32;100.00;101067.97;5079164;28;19924;-78
2021/06/26 03:09:19;;;;;;;;;;;;;;;10.35;100.00;101070.00;5113023;28;19955;-78
2021/06/26 03:11:46;;;;;;;;;;;;;;;10.36;100.00;101089.19;5112579;28;19923;-78
2021/06/26 03:14:13;;;;;;;;;;;;;;;10.39;100.00;101093.25;5109790;28;19931;-78
2021/06/26 03:16:40;;;;;;;;;;;;;;;10.44;100.00;101106.88;5108456;28;19962;-78
2021/06/26 03:19:08;;;;;;;;;;;;;;;10.42;100.00;101109.28;5095505;28;20364;-78
2021/06/26 03:21:35;;;;;;;;;;;;;;;10.50;100.00;101122.16;5104606;28;19928;-78
2021/06/26 03:24:02;;;;;;;;;;;;;;;10.46;100.00;101127.72;5103736;28;19924;-78
2021/06/26 03:26:33;;;;;;;;;;;;;;;10.46;100.00;101143.66;5088742;28;19927;-78
2021/06/26 03:29:01;;;;;;;;;;;;;;;10.47;100.00;101148.06;5112989;28;20006;-78
2021/06/26 03:31:28;;;;;;;;;;;;;;;10.47;100.00;101159.25;5110310;28;20267;-78
2021/06/26 03:33:55;;;;;;;;;;;;;;;10.48;100.00;101163.69;5112425;28;19928;-78
2021/06/26 03:36:24;;;;;;;;;;;;;;;10.48;100.00;101167.25;5109350;28;19924;-78
2021/06/26 03:38:51;;;;;;;;;;;;;;;10.52;100.00;101175.72;5088011;28;20428;-78
2021/06/26 03:41:24;;;;;;;;;;;;;;;10.59;100.00;101179.44;5107739;28;20018;-78
2021/06/26 03:43:52;;;;;;;;;;;;;;;10.60;100.00;101191.44;5113908;28;19946;-78
2021/06/26 03:46:19;;;;;;;;;;;;;;;10.62;100.00;101201.06;5110502;28;19935;-78
2021/06/26 03:48:46;;;;;;;;;;;;;;;10.64;100.00;101206.28;5113778;28;19947;-78
2021/06/26 03:51:13;;;;;;;;;;;;;;;10.62;100.00;101215.03;5099739;28;19924;-78
2021/06/26 03:53:40;;;;;;;;;;;;;;;10.60;100.00;101217.41;5111779;28;19924;-78
2021/06/26 03:56:07;;;;;;;;;;;;;;;10.62;100.00;101225.41;5101617;28;19927;-78
2021/06/26 03:58:35;;;;;;;;;;;;;;;10.64;100.00;101239.84;5101766;28;19924;-78
2021/06/26 04:01:02;;;;;;;;;;;;;;;10.65;100.00;101252.63;5107256;28;19986;-78
2021/06/26 04:03:29;;;;;;;;;;;;;;;10.69;100.00;101253.53;5107933;28;19957;-78
2021/06/26 04:05:56;;;;;;;;;;;;;;;10.69;100.00;101259.09;5111469;28;19924;-78
2021/06/26 04:08:23;;;;;;;;;;;;;;;10.69;100.00;101264.69;5113015;28;20523;-78
2021/06/26 04:10:51;;;;;;;;;;;;;;;10.72;100.00;101266.75;5095341;28;19974;-78
2021/06/26 04:13:18;;;;;;;;;;;;;;;10.70;100.00;101260.72;5109160;28;20375;-78
2021/06/26 04:15:46;;;;;;;;;;;;;;;10.67;100.00;101256.69;5105363;28;20429;-78
2021/06/26 04:18:13;;;;;;;;;;;;;;;10.63;100.00;101258.59;5110041;28;20294;-78
2021/06/26 04:20:40;;;;;;;;;;;;;;;10.51;100.00;101253.16;5109862;28;20014;-78
2021/06/26 04:23:07;;;;;;;;;;;;;;;10.59;100.00;101265.28;5108213;28;19923;-78
2021/06/26 04:25:34;;;;;;;;;;;;;;;10.61;100.00;101265.75;5107536;28;20317;-78
2021/06/26 04:28:08;;;;;;;;;;;;;;;10.59;100.00;101266.13;5100780;28;19923;-78
2021/06/26 04:30:39;;;;;;;;;;;;;;;10.67;100.00;101267.06;5091501;28;19923;-78
2021/06/26 04:33:06;;;;;;;;;;;;;;;10.52;100.00;101265.16;5103022;28;20260;-78
2021/06/26 04:35:33;;;;;;;;;;;;;;;10.47;100.00;101273.84;5113065;28;19928;-78
2021/06/26 04:38:00;;;;;;;;;;;;;;;10.50;100.00;101273.94;5110145;28;19924;-78
2021/06/26 04:40:27;;;;;;;;;;;;;;;10.54;100.00;101283.19;5085837;28;19931;-78
2021/06/26 04:42:55;;;;;;;;;;;;;;;10.58;100.00;101286.06;5111834;28;19938;-78
2021/06/26 04:45:22;;;;;;;;;;;;;;;10.55;100.00;101286.78;5105754;28;19930;-78
2021/06/26 04:47:50;;;;;;;;;;;;;;;10.57;100.00;101288.03;5112251;28;19948;-78
2021/06/26 04:50:17;;;;;;;;;;;;;;;10.69;100.00;101298.25;5105510;28;20444;-78
2021/06/26 04:52:45;;;;;;;;;;;;;;;10.71;100.00;101307.06;5116976;28;19930;-78
2021/06/26 04:55:12;;;;;;;;;;;;;;;10.75;100.00;101313.56;5097166;28;19931;-78
2021/06/26 04:57:39;;;;;;;;;;;;;;;10.79;100.00;101315.22;5112305;28;19924;-78
2021/06/26 05:00:07;;;;;;;;;;;;;;;10.72;100.00;101308.69;5097225;28;19969;-78
2021/06/26 05:02:34;;;;;;;;;;;;;;;10.78;100.00;101307.22;5109409;28;19931;-78
2021/06/26 05:05:02;;;;;;;;;;;;;;;10.89;100.00;101319.38;5083484;28;19931;-78
2021/06/26 05:07:30;;;;;;;;;;;;;;;10.90;100.00;101315.44;5116347;28;19947;-78
2021/06/26 05:09:57;;;;;;;;;;;;;;;10.92;100.00;101321.44;5114864;28;19927;-78
2021/06/26 05:12:24;;;;;;;;;;;;;;;10.95;100.00;101320.69;5109002;28;20308;-78
2021/06/26 05:14:52;;;;;;;;;;;;;;;11.01;100.00;101310.84;5086671;28;19924;-78
2021/06/26 05:17:19;;;;;;;;;;;;;;;11.01;100.00;101313.63;5098564;28;19928;-78
2021/06/26 05:19:46;;;;;;;;;;;;;;;11.09;100.00;101318.16;5096552;28;19977;-78
2021/06/26 05:22:13;;;;;;;;;;;;;;;11.18;100.00;101318.72;5116319;28;19923;-78
2021/06/26 05:24:41;;;;;;;;;;;;;;;11.25;100.00;101320.84;5108009;28;19935;-79
2021/06/26 05:27:08;;;;;;;;;;;;;;;11.22;100.00;101308.41;5113134;28;19974;-78
2021/06/26 05:29:40;;;;;;;;;;;;;;;11.23;100.00;101314.78;5115733;28;19928;-78
2021/06/26 05:32:08;;;;;;;;;;;;;;;11.31;100.00;101305.34;5113590;28;19924;-78
2021/06/26 05:34:37;;;;;;;;;;;;;;;11.45;100.00;101311.97;5095323;28;19930;-79
2021/06/26 05:37:04;;;;;;;;;;;;;;;11.39;100.00;101302.28;5103657;28;19924;-78
2021/06/26 05:39:32;;;;;;;;;;;;;;;11.45;100.00;101294.38;5094268;28;19928;-77
2021/06/26 05:41:59;;;;;;;;;;;;;;;11.42;100.00;101284.72;5094000;28;19974;-78
2021/06/26 05:44:26;;;;;;;;;;;;;;;11.61;100.00;101284.63;5102148;28;19924;-73
2021/06/26 05:46:53;;;;;;;;;;;;;;;11.55;100.00;101296.53;5115223;28;19924;-80
2021/06/26 05:49:21;;;;;;;;;;;;;;;11.75;100.00;101289.66;5119302;27;19923;-79
2021/06/26 05:51:49;;;;;;;;;;;;;;;11.83;100.00;101282.97;5114076;27;19969;-80
2021/06/26 05:54:17;;;;;;;;;;;;;;;11.79;100.00;101274.53;5109804;27;19976;-79
2021/06/26 05:56:44;;;;;;;;;;;;;;;11.76;100.00;101258.47;5093302;28;19970;-79
2021/06/26 05:59:11;;;;;;;;;;;;;;;11.68;100.00;101245.53;5114935;27;19957;-79
2021/06/26 06:01:38;;;;;;;;;;;;;;;11.76;100.00;101244.47;5111674;28;19923;-79
2021/06/26 06:04:06;;;;;;;;;;;;;;;11.78;100.00;101244.09;5114703;28;19932;-79
2021/06/26 06:06:34;;;;;;;;;;;;;;;11.74;100.00;101232.03;5091414;27;19924;-79
2021/06/26 06:09:02;;;;;;;;;;;;;;;11.68;100.00;101214.75;5114971;27;19924;-79
2021/06/26 06:11:30;;;;;;;;;;;;;;;11.78;100.00;101211.28;5111736;28;20061;-79
2021/06/26 06:13:57;;;;;;;;;;;;;;;11.69;100.00;101193.16;5114759;28;19924;-77
2021/06/26 06:16:26;;;;;;;;;;;;;;;11.79;100.00;101190.50;5094013;28;20416;-80
2021/06/26 06:18:53;;;;;;;;;;;;;;;11.92;100.00;101186.25;5090656;28;19924;-79
2021/06/26 06:21:20;;;;;;;;;;;;;;;12.02;100.00;101174.38;5113508;28;19977;-80
2021/06/26 06:23:47;;;;;;;;;;;;;;;11.98;100.00;101159.50;5114640;28;20011;-80
2021/06/26 06:26:15;;;;;;;;;;;;;;;11.91;100.00;101131.41;5110920;28;19974;-80
2021/06/26 06:28:42;;;;;;;;;;;;;;;12.13;100.00;101126.84;5105876;28;19924;-79
2021/06/26 06:31:09;;;;;;;;;;;;;;;12.20;100.00;101105.31;5111060;27;19932;-80
2021/06/26 06:33:36;;;;;;;;;;;;;;;12.33;100.00;101103.81;5093205;28;19942;-80
2021/06/26 06:36:07;;;;;;;;;;;;;;;12.30;100.00;101076.56;5117639;27;20556;-80
2021/06/26 06:38:35;;;;;;;;;;;;;;;12.04;100.00;101051.47;5107979;28;19923;-80
2021/06/26 06:41:03;;;;;;;;;;;;;;;12.06;100.00;101032.28;5108845;27;19923;-78
2021/06/26 06:43:30;;;;;;;;;;;;;;;12.09;100.00;101017.50;5090716;28;19983;-78
2021/06/26 06:45:57;;;;;;;;;;;;;;;12.18;100.00;101012.38;5095049;28;19946;-79
2021/06/26 06:48:25;;;;;;;;;;;;;;;12.16;100.00;100991.56;5089616;28;19931;-79
2021/06/26 06:50:52;;;;;;;;;;;;;;;12.19;100.00;100983.16;5102327;28;19928;-78
2021/06/26 06:53:19;;;;;;;;;;;;;;;12.22;100.00;100975.97;5099847;28;19927;-77
2021/06/26 06:55:51;;;;;;;;;;;;;;;12.29;100.00;100962.00;5095040;28;20344;-77
2021/06/26 06:58:18;;;;;;;;;;;;;;;12.44;100.00;100944.91;5098978;28;19931;-78
2021/06/26 07:00:46;;;;;;;;;;;;;;;12.40;100.00;100934.84;5105804;28;19928;-75
2021/06/26 07:03:14;;;;;;;;;;;;;;;12.29;100.00;100917.97;5111436;27;19924;-77
2021/06/26 07:05:42;;;;;;;;;;;;;;;12.41;100.00;100900.00;5102890;28;19962;-75
2021/06/26 07:08:09;;;;;;;;;;;;;;;12.61;100.00;100896.53;5102708;28;19931;-73
2021/06/26 07:10:37;;;;;;;;;;;;;;;12.70;100.00;100894.16;5107188;28;19927;-74
2021/06/26 07:13:04;;;;;;;;;;;;;;;12.69;100.00;100847.66;5101460;27;20457;-74
2021/06/26 07:15:31;;;;;;;;;;;;;;;12.84;100.00;100842.91;5120905;27;19927;-74
2021/06/26 07:17:59;;;;;;;;;;;;;;;12.71;100.00;100810.81;5121739;27;19938;-77
2021/06/26 07:20:26;;;;;;;;;;;;;;;12.53;100.00;100793.13;5108731;28;20367;-77
2021/06/26 07:22:55;;;;;;;;;;;;;;;12.71;100.00;100786.38;5104779;28;20440;-76
2021/06/26 07:25:23;;;;;;;;;;;;;;;12.77;100.00;100781.97;5107212;27;19931;-76
2021/06/26 07:27:51;;;;;;;;;;;;;;;12.75;100.00;100770.34;5129412;27;19923;-75
2021/06/26 07:30:18;;;;;;;;;;;;;;;12.71;100.00;100766.75;5129193;27;19923;-76
2021/06/26 07:32:46;;;;;;;;;;;;;;;12.65;100.00;100748.69;5092447;28;19928;-76
2021/06/26 07:35:14;;;;;;;;;;;;;;;12.61;100.00;100739.50;5109389;28;20306;-74
2021/06/26 07:37:43;;;;;;;;;;;;;;;12.20;100.00;100701.72;5092222;28;20277;-75
2021/06/26 07:40:11;;;;;;;;;;;;;;;12.23;100.00;100688.91;5113790;28;20427;-74
2021/06/26 07:42:38;;;;;;;;;;;;;;;12.20;100.00;100553.19;5102831;28;19947;-78
2021/06/26 07:45:05;;;;;;;;;;;;;;;12.31;100.00;100551.19;5092862;28;19931;-77
2021/06/26 07:47:33;;;;;;;;;;;;;;;12.55;100.00;100550.41;5103430;28;19976;-76
2021/06/26 07:50:00;;;;;;;;;;;;;;;12.66;100.00;100545.56;5111602;28;19931;-76
2021/06/26 07:52:28;;;;;;;;;;;;;;;12.68;100.00;100537.56;5093069;28;19930;-78
2021/06/26 07:54:55;;;;;;;;;;;;;;;12.85;100.00;100529.50;5107001;28;19935;-76
2021/06/26 07:57:22;;;;;;;;;;;;;;;13.02;100.00;100523.09;5105042;28;19932;-77
2021/06/26 07:59:49;;;;;;;;;;;;;;;12.99;100.00;100507.03;5105439;28;20359;-75
2021/06/26 08:02:16;;;;;;;;;;;;;;;12.84;100.00;100491.44;5109154;28;19928;-76
2021/06/26 08:04:44;;;;;;;;;;;;;;;13.09;100.00;100483.78;5104139;28;19924;-75
2021/06/26 08:07:11;;;;;;;;;;;;;;;13.05;100.00;100477.38;5089368;28;20286;-76
2021/06/26 08:09:38;;;;;;;;;;;;;;;13.25;100.00;100470.91;5111262;27;19932;-75
2021/06/26 08:12:06;;;;;;;;;;;;;;;13.44;100.00;100461.16;5073336;28;20350;-76
2021/06/26 08:14:34;;;;;;;;;;;;;;;13.51;100.00;100444.28;5106087;28;19924;-75
2021/06/26 08:17:01;;;;;;;;;;;;;;;13.44;100.00;100416.25;5109042;28;20374;-76
2021/06/26 08:19:28;;;;;;;;;;;;;;;13.50;100.00;100398.56;5089730;28;20492;-76
2021/06/26 08:21:55;;;;;;;;;;;;;;;13.55;100.00;100380.47;5109049;28;20390;-75
2021/06/26 08:24:22;;;;;;;;;;;;;;;13.65;100.00;100366.34;5113050;28;20043;-75
2021/06/26 08:26:55;;;;;;;;;;;;;;;13.93;100.00;100349.25;5108686;28;19924;-75
2021/06/26 08:29:22;;;;;;;;;;;;;;;14.18;100.00;100337.75;5112985;28;19924;-76
2021/06/26 08:31:49;;;;;;;;;;;;;;;14.28;100.00;100331.28;5107588;28;20007;-76
2021/06/26 08:34:16;;;;;;;;;;;;;;;14.03;100.00;100308.22;5101774;28;19924;-76
2021/06/26 08:36:44;;;;;;;;;;;;;;;13.68;100.00;100280.44;5107882;28;19924;-76
2021/06/26 08:39:11;;;;;;;;;;;;;;;13.93;100.00;100275.41;5114129;28;20470;-76
2021/06/26 08:41:44;;;;;;;;;;;;;;;14.03;100.00;100261.25;5115844;28;19962;-75
2021/06/26 08:44:12;;;;;;;;;;;;;;;14.26;100.00;100243.75;5098132;28;19930;-76
2021/06/26 08:46:44;;;;;;;;;;;;;;;13.92;100.00;100200.72;5099078;28;20294;-76
2021/06/26 08:49:11;;;;;;;;;;;;;;;13.84;100.00;100188.78;5117211;28;20011;-75
2021/06/26 08:51:38;;;;;;;;;;;;;;;14.06;100.00;100178.09;5116901;28;19923;-76
2021/06/26 08:54:16;;;;;;;;;;;;;;;14.19;100.00;100167.91;5117111;28;19924;-76
2021/06/26 08:56:44;;;;;;;;;;;;;;;14.34;100.00;100158.09;5116758;28;19946;-75
2021/06/26 08:59:11;;;;;;;;;;;;;;;14.32;100.00;100079.00;5117022;28;19963;-75
2021/06/26 09:01:39;;;;;;;;;;;;;;;14.24;100.00;100060.63;5116655;28;19924;-76
2021/06/26 09:04:09;;;;;;;;;;;;;;;14.36;100.00;100057.22;5098581;28;19928;-78
2021/06/26 09:06:50;;;;;;;;;;;;;;;14.25;100.00;100048.19;5116583;28;20015;-77
2021/06/26 09:09:36;;;;;;;;;;;;;;;14.21;100.00;100044.59;5098494;28;20271;-77
2021/06/26 09:12:06;;;;;;;;;;;;;;;14.10;100.00;100039.13;5116312;28;19963;-75
2021/06/26 09:14:34;;;;;;;;;;;;;;;13.60;100.00;100021.34;5116495;28;19930;-76
2021/06/26 09:17:02;;;;;;;;;;;;;;;13.56;100.00;100026.25;5116567;28;19924;-75
2021/06/26 09:19:31;;;;;;;;;;;;;;;13.78;100.00;100035.19;5116490;28;19930;-76
2021/06/26 09:21:59;;;;;;;;;;;;;;;14.10;100.00;100055.97;5098333;28;19971;-75
2021/06/26 09:24:37;;;;;;;;;;;;;;;13.96;100.00;100052.59;5097848;28;20010;-75
2021/06/26 09:27:05;;;;;;;;;;;;;;;13.93;100.00;100050.63;5081393;28;20018;-77
2021/06/26 09:29:32;;;;;;;;;;;;;;;14.06;100.00;100051.63;5116352;28;19930;-76
2021/06/26 09:32:04;;;;;;;;;;;;;;;14.26;100.00;100046.97;5113342;28;19924;-75
2021/06/26 09:34:42;;;;;;;;;;;;;;;14.34;100.00;100042.81;5081116;28;19923;-77
2021/06/26 09:37:10;;;;;;;;;;;;;;;14.62;100.00;100047.16;5116111;28;19928;-77
2021/06/26 09:39:38;;;;;;;;;;;;;;;14.83;100.00;100039.16;5115920;28;20026;-77
2021/06/26 09:42:18;;;;;;;;;;;;;;;15.06;100.00;100027.88;5097006;28;19930;-77
2021/06/26 09:44:49;;;;;;;;;;;;;;;15.00;100.00;100012.72;5115388;28;19946;-78
2021/06/26 09:47:29;;;;;;;;;;;;;;;15.15;100.00;99990.72;5115539;28;19931;-77
2021/06/26 09:50:06;;;;;;;;;;;;;;;15.03;100.00;99983.72;5097457;28;19931;-77
2021/06/26 09:52:40;;;;;;;;;;;;;;;14.90;100.00;99971.53;5097578;28;19927;-77
2021/06/26 09:55:26;;;;;;;;;;;;;;;14.78;100.00;99949.66;5080451;28;20077;-77
2021/06/26 09:57:55;;;;;;;;;;;;;;;14.96;100.00;99932.41;5097328;28;19924;-77
2021/06/26 10:00:23;;;;;;;;;;;;;;;15.04;100.00;99917.75;5115580;28;19946;-75
2021/06/26 10:02:51;;;;;;;;;;;;;;;14.68;100.00;99894.38;5115511;28;19924;-74
2021/06/26 10:05:18;;;;;;;;;;;;;;;14.46;100.00;99877.09;5115305;28;19935;-74
2021/06/26 10:07:47;;;;;;;;;;;;;;;14.49;100.00;99875.47;5115202;28;19928;-77
2021/06/26 10:10:16;;;;;;;;;;;;;;;14.55;100.00;99868.13;5097018;28;19973;-77
2021/06/26 10:12:43;;;;;;;;;;;;;;;14.55;100.00;99851.25;5115701;28;19931;-77
2021/06/26 10:15:12;;;;;;;;;;;;;;;14.38;100.00;99835.50;5115603;28;19931;-77
2021/06/26 10:17:39;;;;;;;;;;;;;;;14.48;100.00;99849.34;5115604;28;19924;-77
2021/06/26 10:20:09;;;;;;;;;;;;;;;14.25;100.00;99842.97;5115462;28;19927;-76
2021/06/26 10:22:38;;;;;;;;;;;;;;;14.61;100.00;99857.16;5115424;28;20073;-76
2021/06/26 10:25:06;;;;;;;;;;;;;;;14.61;100.00;99855.13;5093739;28;19931;-76
2021/06/26 10:27:34;;;;;;;;;;;;;;;14.27;100.00;99840.50;5095057;28;19924;-76
2021/06/26 10:30:10;;;;;;;;;;;;;;;13.92;100.00;99839.09;5095207;28;19924;-76
2021/06/26 10:32:48;;;;;;;;;;;;;;;14.14;100.00;99860.00;5094716;28;19931;-76
2021/06/26 10:35:15;;;;;;;;;;;;;;;14.49;100.00;99864.22;5094655;28;19924;-77
2021/06/26 10:37:42;;;;;;;;;;;;;;;14.30;100.00;99853.72;5094658;28;20319;-78
2021/06/26 10:40:10;;;;;;;;;;;;;;;14.41;100.00;99857.13;5110163;28;20351;-77
2021/06/26 10:42:39;;;;;;;;;;;;;;;14.63;100.00;99852.66;5094289;28;20406;-77
2021/06/26 10:45:07;;;;;;;;;;;;;;;14.70;100.00;99858.16;5092508;28;19931;-77
2021/06/26 10:47:41;;;;;;;;;;;;;;;15.03;100.00;99843.00;5094309;28;19924;-77
2021/06/26 10:50:12;;;;;;;;;;;;;;;15.06;100.00;99824.44;5093375;28;19928;-77
2021/06/26 10:52:52;;;;;;;;;;;;;;;15.45;100.00;99824.41;5094015;28;19924;-77
2021/06/26 10:55:30;;;;;;;;;;;;;;;15.42;100.00;99823.22;5094240;28;20398;-77
2021/06/26 10:57:58;;;;;;;;;;;;;;;14.98;100.00;99806.91;5094368;28;19966;-77
2021/06/26 11:00:36;;;;;;;;;;;;;;;15.11;100.00;99804.22;5094344;28;19924;-77
2021/06/26 11:03:04;;;;;;;;;;;;;;;15.05;100.00;99789.09;5094284;28;19927;-77
2021/06/26 11:05:33;;;;;;;;;;;;;;;14.83;100.00;99777.50;5093099;28;20007;-77
2021/06/26 11:08:01;;;;;;;;;;;;;;;14.42;100.00;99771.53;5094119;28;20469;-77
2021/06/26 11:10:28;;;;;;;;;;;;;;;14.29;100.00;99765.00;5094091;28;19928;-77
2021/06/26 11:12:55;;;;;;;;;;;;;;;14.37;100.00;99777.69;5094046;28;19935;-77
2021/06/26 11:15:26;;;;;;;;;;;;;;;14.13;100.00;99767.69;5094246;28;19938;-77
2021/06/26 11:17:54;;;;;;;;;;;;;;;14.37;100.00;99772.84;5093855;28;19925;-77
2021/06/26 11:20:21;;;;;;;;;;;;;;;14.70;100.00;99776.59;5093761;28;19932;-77
2021/06/26 11:22:53;;;;;;;;;;;;;;;14.45;100.00;99784.75;5109749;28;20022;-77
2021/06/26 11:25:21;;;;;;;;;;;;;;;14.67;100.00;99779.47;5078241;28;19931;-77
2021/06/26 11:27:48;;;;;;;;;;;;;;;15.05;100.00;99784.25;5093742;28;19928;-77
2021/06/26 11:30:16;;;;;;;;;;;;;;;15.21;100.00;99781.47;5093448;28;19924;-77
2021/06/26 11:32:44;;;;;;;;;;;;;;;14.97;100.00;99765.94;5094092;28;19924;-77
2021/06/26 11:35:15;;;;;;;;;;;;;;;15.34;100.00;99759.81;5093784;28;19924;-77
2021/06/26 11:37:43;;;;;;;;;;;;;;;15.08;100.00;99763.69;5073663;28;19924;-77
2021/06/26 11:40:13;;;;;;;;;;;;;;;15.35;100.00;99769.88;5082080;28;19924;-77
2021/06/26 11:42:43;;;;;;;;;;;;;;;15.30;100.00;99759.13;5109397;28;19924;-77
2021/06/26 11:45:14;;;;;;;;;;;;;;;15.54;100.00;99701.44;5092357;28;20301;-77
2021/06/26 11:47:42;;;;;;;;;;;;;;;15.57;100.00;99668.78;5093365;28;20369;-77
2021/06/26 11:50:14;;;;;;;;;;;;;;;15.81;100.00;99668.09;5092026;28;19924;-77
2021/06/26 11:52:42;;;;;;;;;;;;;;;15.95;100.00;99650.78;5093479;28;19931;-77
2021/06/26 11:55:09;;;;;;;;;;;;;;;16.22;100.00;99642.75;5091370;28;19932;-78
2021/06/26 11:57:37;;;;;;;;;;;;;;;16.53;100.00;99648.72;5093585;28;19924;-77
2021/06/26 12:00:06;;;;;;;;;;;;;;;16.57;100.00;99623.22;5093002;28;19931;-77
2021/06/26 12:02:39;;;;;;;;;;;;;;;16.87;100.00;99619.81;5093188;28;19928;-77
2021/06/26 12:05:18;;;;;;;;;;;;;;;16.90;100.00;99614.06;5093027;28;19933;-77
2021/06/26 12:07:46;;;;;;;;;;;;;;;17.16;100.00;99609.19;5093346;28;19924;-77
2021/06/26 12:10:13;;;;;;;;;;;;;;;16.87;100.00;99597.25;5093247;28;19970;-77
2021/06/26 12:12:40;;;;;;;;;;;;;;;16.27;100.00;99590.66;5091984;28;19928;-77
2021/06/26 12:15:09;;;;;;;;;;;;;;;16.74;100.00;99591.59;5108678;28;19924;-77
2021/06/26 12:17:36;;;;;;;;;;;;;;;16.32;100.00;99589.31;5093592;28;19928;-77
2021/06/26 12:20:04;;;;;;;;;;;;;;;16.44;100.00;99585.72;5091691;28;19924;-77
2021/06/26 12:22:31;;;;;;;;;;;;;;;16.64;100.00;99589.13;5093519;28;19928;-77
2021/06/26 12:25:06;;;;;;;;;;;;;;;16.50;100.00;99583.94;5093120;28;19935;-77
2021/06/26 12:27:33;;;;;;;;;;;;;;;16.63;100.00;99581.91;5093427;28;19925;-77
2021/06/26 12:30:06;;;;;;;;;;;;;;;16.88;100.00;99576.25;5092918;28;19928;-77
2021/06/26 12:32:35;;;;;;;;;;;;;;;16.70;100.00;99576.03;5093201;28;19931;-77
2021/06/26 12:35:04;;;;;;;;;;;;;;;16.71;100.00;99566.31;5093087;28;19938;-77
2021/06/26 12:37:33;;;;;;;;;;;;;;;16.75;100.00;99567.00;5088365;28;19994;-77
2021/06/26 12:40:07;;;;;;;;;;;;;;;16.89;100.00;99560.91;5088687;28;19924;-77
2021/06/26 12:43:05;;;;;;;;;;;;;;;16.98;100.00;99566.66;5087392;28;19927;-77
2021/06/26 12:45:34;;;;;;;;;;;;;;;17.24;100.00;99566.13;5092812;28;19925;-77
2021/06/26 12:48:06;;;;;;;;;;;;;;;17.68;100.00;99564.94;5092835;28;19954;-77
2021/06/26 12:50:49;;;;;;;;;;;;;;;17.95;100.00;99558.69;5108703;28;19928;-77